createdAt,value
2023-04-27T00:01:26.920Z,6.53
2023-04-27T00:03:54.151Z,5.13
2023-04-27T00:06:21.535Z,6.05
2023-04-27T00:08:48.592Z,5.72
2023-04-27T00:11:15.687Z,5.35
2023-04-27T00:13:42.750Z,6.93
2023-04-27T00:16:09.809Z,6.22
2023-04-27T00:18:37.120Z,8.43
2023-04-27T00:21:04.288Z,3.92
2023-04-27T00:23:31.431Z,6.95
2023-04-27T00:25:58.425Z,5.53
2023-04-27T00:28:25.682Z,6.57
2023-04-27T00:30:54.771Z,3.80
2023-04-27T00:33:21.797Z,3.67
2023-04-27T00:35:48.864Z,3.13
2023-04-27T00:38:15.911Z,5.25
2023-04-27T00:40:43.071Z,6.43
2023-04-27T00:43:10.128Z,7.57
2023-04-27T00:45:43.803Z,3.80
2023-04-27T00:48:12.010Z,7.85
2023-04-27T00:50:39.592Z,6.43
2023-04-27T00:53:08.079Z,7.10
2023-04-27T00:55:35.168Z,7.57
2023-04-27T00:58:02.920Z,4.38
2023-04-27T01:00:29.936Z,7.43
2023-04-27T01:02:57.348Z,4.32
2023-04-27T01:05:27.293Z,6.10
2023-04-27T01:07:54.329Z,7.88
2023-04-27T01:10:21.367Z,6.22
2023-04-27T01:12:48.469Z,7.13
2023-04-27T01:15:15.506Z,6.43
2023-04-27T01:17:43.416Z,5.40
2023-04-27T01:20:11.370Z,7.47
2023-04-27T01:22:38.632Z,10.75
2023-04-27T01:25:06.850Z,10.05
2023-04-27T01:27:34.347Z,7.65
2023-04-27T01:30:01.376Z,5.03
2023-04-27T01:32:28.535Z,8.75
2023-04-27T01:34:55.648Z,7.00
2023-04-27T01:37:26.748Z,6.10
2023-04-27T01:39:53.848Z,3.83
2023-04-27T01:42:20.991Z,4.95
2023-04-27T01:44:48.916Z,6.85
2023-04-27T01:47:17.486Z,5.55
2023-04-27T01:49:44.953Z,5.90
2023-04-27T01:52:12.112Z,3.78
2023-04-27T01:54:39.384Z,6.72
2023-04-27T01:57:07.181Z,7.22
2023-04-27T01:59:34.415Z,7.70
2023-04-27T02:02:02.051Z,9.65
2023-04-27T02:04:30.422Z,8.52
2023-04-27T02:06:58.343Z,7.13
2023-04-27T02:09:25.456Z,7.63
2023-04-27T02:11:52.464Z,5.82
2023-04-27T02:14:19.612Z,9.32
2023-04-27T02:16:47.368Z,3.97
2023-04-27T02:19:14.706Z,12.27
2023-04-27T02:21:42.003Z,6.18
2023-04-27T02:24:09.993Z,5.03
2023-04-27T02:26:37.181Z,6.32
2023-04-27T02:29:04.329Z,13.27
2023-04-27T02:31:31.987Z,7.30
2023-04-27T02:33:59.171Z,12.68
2023-04-27T02:36:28.059Z,8.60
2023-04-27T02:38:55.629Z,8.02
2023-04-27T02:41:22.862Z,7.25
2023-04-27T02:43:53.320Z,8.77
2023-04-27T02:46:20.457Z,9.07
2023-04-27T02:48:47.474Z,11.13
2023-04-27T02:51:14.638Z,8.00
2023-04-27T02:53:41.658Z,9.05
2023-04-27T02:56:08.717Z,10.18
2023-04-27T02:58:35.829Z,10.57
2023-04-27T03:01:03.076Z,7.82
2023-04-27T03:03:30.282Z,10.18
2023-04-27T03:05:57.589Z,7.30
2023-04-27T03:08:24.627Z,9.48
2023-04-27T03:10:51.748Z,6.65
2023-04-27T03:13:18.887Z,6.45
2023-04-27T03:15:46.017Z,8.27
2023-04-27T03:18:13.022Z,10.23
2023-04-27T03:20:41.631Z,9.18
2023-04-27T03:23:08.647Z,9.90
2023-04-27T03:25:35.811Z,10.50
2023-04-27T03:28:02.905Z,12.45
2023-04-27T03:30:29.980Z,10.75
2023-04-27T03:32:57.385Z,10.25
2023-04-27T03:35:24.475Z,10.82
2023-04-27T03:37:51.574Z,11.43
2023-04-27T03:40:18.679Z,15.38
2023-04-27T03:42:46.003Z,8.27
2023-04-27T03:45:13.127Z,8.73
2023-04-27T03:47:40.392Z,6.80
2023-04-27T03:50:08.006Z,9.77
2023-04-27T03:52:35.114Z,6.35
2023-04-27T03:55:04.138Z,11.63
2023-04-27T03:57:31.267Z,8.88
2023-04-27T03:59:58.996Z,4.65
2023-04-27T04:02:26.214Z,5.40
2023-04-27T04:04:53.564Z,8.18
2023-04-27T04:07:21.117Z,5.50
2023-04-27T04:09:48.295Z,3.78
2023-04-27T04:12:15.293Z,6.32
2023-04-27T04:14:43.136Z,8.77
2023-04-27T04:17:11.196Z,8.85
2023-04-27T04:19:41.545Z,3.67
2023-04-27T04:22:08.748Z,7.70
2023-04-27T04:24:36.459Z,4.35
2023-04-27T04:27:03.772Z,6.57
2023-04-27T04:29:31.267Z,5.80
2023-04-27T04:31:58.353Z,7.00
2023-04-27T04:34:25.476Z,5.63
2023-04-27T04:36:52.572Z,6.88
2023-04-27T04:39:23.318Z,7.80
2023-04-27T04:41:50.486Z,4.85
2023-04-27T04:44:18.318Z,4.45
2023-04-27T04:46:45.419Z,5.43
2023-04-27T04:49:12.773Z,6.72
2023-04-27T04:51:44.442Z,5.80
2023-04-27T04:54:12.603Z,9.70
2023-04-27T04:56:39.648Z,3.90
2023-04-27T04:59:06.865Z,6.72
2023-04-27T05:01:33.928Z,5.80
2023-04-27T05:04:01.437Z,7.32
2023-04-27T05:06:29.683Z,4.45
2023-04-27T05:08:56.828Z,6.85
2023-04-27T05:11:23.871Z,7.88
2023-04-27T05:13:51.370Z,7.05
2023-04-27T05:16:18.419Z,8.73
2023-04-27T05:18:45.557Z,5.60
2023-04-27T05:21:16.536Z,2.83
2023-04-27T05:23:43.669Z,6.93
2023-04-27T05:26:15.121Z,4.57
2023-04-27T05:28:42.599Z,6.32
2023-04-27T05:31:09.779Z,6.07
2023-04-27T05:33:36.967Z,6.45
2023-04-27T05:36:04.242Z,4.10
2023-04-27T05:38:31.266Z,7.57
2023-04-27T05:40:58.863Z,7.45
2023-04-27T05:43:26.459Z,8.70
2023-04-27T05:45:54.073Z,6.50
2023-04-27T05:48:21.387Z,5.00
2023-04-27T05:50:48.419Z,5.18
2023-04-27T05:53:15.454Z,6.47
2023-04-27T05:55:43.235Z,7.85
2023-04-27T05:58:10.280Z,6.30
2023-04-27T06:00:38.613Z,5.78
2023-04-27T06:03:05.914Z,4.47
2023-04-27T06:05:34.674Z,9.43
2023-04-27T06:08:01.954Z,8.52
2023-04-27T06:10:29.050Z,7.60
2023-04-27T06:12:56.187Z,3.65
2023-04-27T06:15:23.326Z,5.32
2023-04-27T06:17:50.388Z,9.02
2023-04-27T06:20:17.599Z,3.10
2023-04-27T06:22:44.673Z,4.72
2023-04-27T06:25:11.985Z,3.90
2023-04-27T06:27:39.072Z,4.47
2023-04-27T06:30:07.041Z,8.68
2023-04-27T06:32:34.172Z,6.60
2023-04-27T06:35:01.231Z,8.15
2023-04-27T06:37:28.336Z,5.70
2023-04-27T06:39:55.741Z,2.88
2023-04-27T06:42:22.833Z,4.50
2023-04-27T06:44:49.861Z,6.05
2023-04-27T06:47:16.960Z,4.38
2023-04-27T06:49:43.926Z,6.55
2023-04-27T06:52:11.052Z,3.03
2023-04-27T06:54:38.207Z,4.32
2023-04-27T06:57:06.556Z,3.50
2023-04-27T06:59:33.597Z,5.50
2023-04-27T07:02:00.744Z,7.70
2023-04-27T07:04:28.210Z,4.53
2023-04-27T07:06:56.539Z,5.40
2023-04-27T07:09:27.538Z,3.40
2023-04-27T07:11:55.628Z,4.25
2023-04-27T07:14:23.126Z,3.13
2023-04-27T07:16:50.258Z,5.22
2023-04-27T07:19:17.301Z,5.80
2023-04-27T07:21:44.470Z,3.30
2023-04-27T07:24:11.561Z,3.65
2023-04-27T07:26:38.661Z,3.78
2023-04-27T07:29:14.408Z,1.45
2023-04-27T07:31:46.539Z,1.73
2023-04-27T07:34:13.897Z,5.32
2023-04-27T07:36:41.068Z,3.00
2023-04-27T07:39:08.488Z,2.90
2023-04-27T07:41:35.747Z,4.05
2023-04-27T07:44:02.828Z,3.47
2023-04-27T07:46:31.893Z,3.92
2023-04-27T07:49:00.227Z,4.78
2023-04-27T07:51:28.987Z,2.50
2023-04-27T07:53:56.578Z,3.97
2023-04-27T07:56:23.604Z,3.83
2023-04-27T07:58:51.134Z,3.42
2023-04-27T08:01:20.180Z,2.25
2023-04-27T08:03:48.676Z,5.80
2023-04-27T08:06:16.420Z,3.88
2023-04-27T08:08:43.879Z,8.18
2023-04-27T08:11:12.313Z,3.53
2023-04-27T08:13:39.487Z,0.60
2023-04-27T08:16:07.221Z,0.80
2023-04-27T08:18:34.707Z,0.93
2023-04-27T08:21:01.856Z,3.05
2023-04-27T08:23:29.847Z,1.63
2023-04-27T08:25:56.924Z,3.55
2023-04-27T08:28:24.099Z,3.78
2023-04-27T08:30:52.061Z,1.90
2023-04-27T08:33:19.197Z,4.22
2023-04-27T08:35:46.400Z,3.10
2023-04-27T08:38:13.565Z,2.00
2023-04-27T08:40:44.307Z,2.70
2023-04-27T08:43:11.749Z,2.88
2023-04-27T08:45:39.706Z,5.07
2023-04-27T08:48:06.949Z,2.88
2023-04-27T08:50:36.874Z,2.40
2023-04-27T08:53:04.064Z,6.25
2023-04-27T08:55:31.226Z,3.70
2023-04-27T08:57:58.980Z,3.30
2023-04-27T09:00:26.882Z,1.80
2023-04-27T09:02:54.286Z,1.27
2023-04-27T09:05:24.833Z,4.97
2023-04-27T09:07:59.437Z,3.60
2023-04-27T09:10:29.674Z,2.75
2023-04-27T09:13:01.322Z,2.53
2023-04-27T09:15:29.128Z,1.88
2023-04-27T09:17:59.204Z,2.85
2023-04-27T09:20:27.516Z,3.00
2023-04-27T09:22:55.927Z,4.47
2023-04-27T09:25:26.672Z,3.78
2023-04-27T09:27:54.135Z,1.92
2023-04-27T09:30:21.624Z,2.60
2023-04-27T09:32:56.937Z,3.83
2023-04-27T09:35:26.325Z,3.72
2023-04-27T09:37:54.393Z,3.72
2023-04-27T09:40:29.880Z,3.65
2023-04-27T09:42:59.552Z,2.30
2023-04-27T09:45:27.032Z,1.88
2023-04-27T09:47:54.559Z,1.92
2023-04-27T09:50:24.695Z,1.63
2023-04-27T09:52:51.844Z,2.55
2023-04-27T09:55:27.756Z,2.55
2023-04-27T09:58:17.966Z,1.15
2023-04-27T10:01:05.317Z,1.58
2023-04-27T10:04:00.363Z,1.15
2023-04-27T10:06:57.176Z,3.88
2023-04-27T10:09:26.048Z,1.02
2023-04-27T10:11:54.819Z,0.55
2023-04-27T10:14:23.432Z,2.80
2023-04-27T10:16:55.187Z,2.50
2023-04-27T10:19:23.837Z,1.38
2023-04-27T10:21:57.266Z,2.88
2023-04-27T10:24:39.134Z,3.13
2023-04-27T10:27:08.251Z,3.15
2023-04-27T10:29:43.300Z,2.17
2023-04-27T10:32:21.223Z,2.55
2023-04-27T10:34:49.704Z,2.05
2023-04-27T10:37:18.064Z,1.42
2023-04-27T10:39:49.131Z,2.67
2023-04-27T10:42:28.773Z,2.17
2023-04-27T10:44:59.449Z,9.60
2023-04-27T10:47:39.938Z,4.07
2023-04-27T10:50:15.693Z,2.90
2023-04-27T10:52:44.187Z,3.30
2023-04-27T10:55:19.007Z,3.17
2023-04-27T10:57:56.220Z,3.58
2023-04-27T11:00:29.950Z,4.07
2023-04-27T11:03:09.425Z,3.20
2023-04-27T11:05:36.880Z,2.67
2023-04-27T11:08:12.127Z,4.28
2023-04-27T11:10:40.491Z,3.83
2023-04-27T11:13:12.854Z,3.85
2023-04-27T11:15:59.527Z,2.33
2023-04-27T11:18:30.824Z,3.67
2023-04-27T11:21:09.697Z,2.65
2023-04-27T11:23:38.370Z,3.72
2023-04-27T11:26:17.494Z,2.10
2023-04-27T11:29:00.024Z,3.30
2023-04-27T11:31:29.066Z,3.40
2023-04-27T11:33:56.384Z,2.20
2023-04-27T11:36:24.610Z,3.42
2023-04-27T11:38:51.733Z,2.92
2023-04-27T11:41:19.771Z,2.90
2023-04-27T11:43:49.714Z,2.75
2023-04-27T11:46:21.548Z,3.30
2023-04-27T11:48:49.589Z,4.38
2023-04-27T11:51:16.772Z,3.25
2023-04-27T11:53:48.417Z,1.58
2023-04-27T11:56:15.561Z,2.10
2023-04-27T11:58:46.454Z,2.67
2023-04-27T12:01:15.460Z,2.20
2023-04-27T12:03:42.792Z,1.25
2023-04-27T12:06:27.695Z,2.20
2023-04-27T12:08:57.830Z,4.25
2023-04-27T12:11:27.970Z,3.70
2023-04-27T12:13:55.489Z,4.25
2023-04-27T12:16:23.187Z,2.83
2023-04-27T12:18:51.115Z,3.28
2023-04-27T12:21:18.697Z,4.57
2023-04-27T12:23:45.848Z,7.10
2023-04-27T12:26:15.154Z,3.08
2023-04-27T12:28:42.644Z,4.47
2023-04-27T12:31:14.432Z,4.40
2023-04-27T12:36:08.974Z,5.70
2023-04-27T12:38:36.453Z,4.78
2023-04-27T12:41:03.679Z,4.30
2023-04-27T12:43:31.052Z,2.35
2023-04-27T12:45:58.181Z,1.98
2023-04-27T12:48:25.427Z,3.58
2023-04-27T12:50:52.650Z,4.30
2023-04-27T12:53:19.799Z,1.75
2023-04-27T12:55:47.391Z,2.60
2023-04-27T12:58:14.707Z,4.65
2023-04-27T13:00:42.235Z,3.13
2023-04-27T13:03:09.724Z,5.15
2023-04-27T13:05:36.944Z,3.65
2023-04-27T13:08:04.867Z,1.63
2023-04-27T13:10:32.307Z,4.90
2023-04-27T13:13:00.291Z,2.90
2023-04-27T13:15:28.710Z,3.42
2023-04-27T13:17:56.957Z,1.50
2023-04-27T13:20:24.107Z,1.13
2023-04-27T13:22:51.265Z,1.25
2023-04-27T13:25:20.092Z,1.20
2023-04-27T13:27:47.265Z,2.17
2023-04-27T13:30:14.435Z,1.83
2023-04-27T13:32:41.827Z,3.53
2023-04-27T13:35:09.404Z,0.68
2023-04-27T13:37:36.505Z,0.82
2023-04-27T13:40:05.489Z,1.70
2023-04-27T13:42:32.622Z,1.02
2023-04-27T13:44:59.936Z,1.73
2023-04-27T13:47:29.403Z,2.53
2023-04-27T13:49:56.524Z,3.15
2023-04-27T13:52:23.805Z,4.97
2023-04-27T13:54:50.882Z,1.42
2023-04-27T13:57:18.035Z,3.83
2023-04-27T13:59:45.061Z,3.78
2023-04-27T14:02:12.666Z,4.38
2023-04-27T14:04:39.778Z,3.83
2023-04-27T14:07:08.112Z,4.30
2023-04-27T14:09:35.976Z,6.38
2023-04-27T14:12:04.629Z,1.75
2023-04-27T14:14:31.750Z,2.00
2023-04-27T14:16:59.114Z,2.80
2023-04-27T14:19:27.623Z,2.45
2023-04-27T14:21:56.375Z,4.10
2023-04-27T14:24:23.810Z,3.08
2023-04-27T14:26:51.927Z,1.77
2023-04-27T14:29:19.545Z,1.70
2023-04-27T14:31:47.429Z,1.80
2023-04-27T14:34:14.945Z,2.00
2023-04-27T14:36:42.048Z,1.60
2023-04-27T14:39:09.883Z,3.83
2023-04-27T14:41:39.916Z,1.38
2023-04-27T14:44:08.579Z,7.15
2023-04-27T14:46:37.191Z,3.33
2023-04-27T14:49:04.387Z,2.33
2023-04-27T14:51:32.703Z,1.90
2023-04-27T14:53:59.853Z,2.50
2023-04-27T14:56:26.909Z,8.38
2023-04-27T14:58:55.464Z,4.88
2023-04-27T15:01:22.862Z,9.02
2023-04-27T15:03:51.417Z,5.47
2023-04-27T15:06:19.384Z,2.13
2023-04-27T15:08:46.680Z,2.45
2023-04-27T15:11:13.775Z,6.25
2023-04-27T15:13:41.152Z,3.45
2023-04-27T15:16:08.258Z,1.77
2023-04-27T15:18:35.621Z,2.95
2023-04-27T15:21:02.801Z,2.40
2023-04-27T15:23:29.937Z,4.60
2023-04-27T15:25:58.282Z,2.88
2023-04-27T15:28:25.477Z,3.28
2023-04-27T15:30:52.769Z,3.78
2023-04-27T15:33:20.260Z,2.53
2023-04-27T15:35:47.384Z,4.00
2023-04-27T15:38:15.786Z,3.63
2023-04-27T15:40:43.076Z,3.78
2023-04-27T15:43:10.257Z,2.50
2023-04-27T15:45:37.403Z,3.53
2023-04-27T15:48:04.711Z,3.50
2023-04-27T15:50:32.386Z,4.05
2023-04-27T15:52:59.666Z,4.80
2023-04-27T15:55:26.887Z,2.35
2023-04-27T15:57:54.313Z,2.55
2023-04-27T16:00:22.619Z,4.65
2023-04-27T16:02:50.032Z,2.25
2023-04-27T16:05:17.648Z,0.73
2023-04-27T16:07:45.351Z,1.15
2023-04-27T16:10:12.935Z,2.63
2023-04-27T16:12:40.349Z,2.85
2023-04-27T16:15:10.972Z,5.78
2023-04-27T16:17:47.564Z,10.30
2023-04-27T16:20:14.713Z,6.53
2023-04-27T16:22:41.854Z,2.45
2023-04-27T16:25:12.442Z,8.32
2023-04-27T16:27:39.946Z,3.65
2023-04-27T16:30:07.841Z,2.38
2023-04-27T16:32:35.659Z,6.18
2023-04-27T16:35:03.274Z,4.97
2023-04-27T16:37:30.599Z,8.20
2023-04-27T16:40:01.747Z,7.07
2023-04-27T16:42:28.967Z,4.90
2023-04-27T16:44:56.695Z,4.18
2023-04-27T16:47:23.728Z,3.65
2023-04-27T16:49:51.415Z,2.22
2023-04-27T16:52:18.892Z,3.85
2023-04-27T16:54:46.255Z,3.05
2023-04-27T16:57:13.576Z,8.25
2023-04-27T16:59:40.680Z,2.97
2023-04-27T17:02:23.072Z,2.15
2023-04-27T17:04:51.494Z,6.22
2023-04-27T17:07:18.741Z,2.95
2023-04-27T17:09:45.920Z,3.97
2023-04-27T17:12:14.853Z,3.25
2023-04-27T17:14:42.903Z,4.40
2023-04-27T17:17:10.653Z,5.53
2023-04-27T17:19:39.265Z,5.18
2023-04-27T17:22:08.334Z,3.50
2023-04-27T17:24:35.473Z,7.22
2023-04-27T17:27:04.391Z,2.65
2023-04-27T17:29:32.063Z,3.42
2023-04-27T17:31:59.230Z,5.55
2023-04-27T17:34:26.454Z,7.35
2023-04-27T17:36:53.751Z,4.90
2023-04-27T17:39:22.825Z,7.22
2023-04-27T17:41:49.956Z,8.82
2023-04-27T17:44:17.415Z,5.40
2023-04-27T17:46:49.021Z,8.52
2023-04-27T17:49:17.509Z,8.10
2023-04-27T17:51:45.332Z,5.60
2023-04-27T17:54:12.591Z,4.72
2023-04-27T17:56:39.922Z,5.90
2023-04-27T17:59:10.330Z,4.43
2023-04-27T18:01:37.429Z,4.57
2023-04-27T18:04:07.305Z,5.63
2023-04-27T18:06:34.611Z,7.03
2023-04-27T18:09:01.862Z,7.18
2023-04-27T18:11:29.176Z,11.70
2023-04-27T18:13:58.152Z,5.18
2023-04-27T18:16:25.809Z,10.02
2023-04-27T18:18:52.946Z,7.90
2023-04-27T18:21:20.095Z,10.85
2023-04-27T18:23:47.219Z,11.90
2023-04-27T18:26:14.295Z,14.45
2023-04-27T18:28:42.080Z,16.40
2023-04-27T18:31:16.905Z,10.05
2023-04-27T18:33:45.082Z,15.25
2023-04-27T18:36:12.363Z,14.68
2023-04-27T18:38:39.493Z,16.52
2023-04-27T18:41:07.397Z,8.45
2023-04-27T18:43:36.862Z,7.80
2023-04-27T18:46:04.789Z,8.65
2023-04-27T18:48:32.707Z,7.93
2023-04-27T18:50:59.959Z,8.20
2023-04-27T18:53:28.244Z,8.73
2023-04-27T18:55:55.451Z,12.35
2023-04-27T18:58:22.574Z,7.95
2023-04-27T19:00:49.617Z,14.32
2023-04-27T19:03:16.757Z,6.25
2023-04-27T19:05:44.373Z,9.32
2023-04-27T19:08:11.547Z,10.35
2023-04-27T19:10:41.428Z,9.18
2023-04-27T19:13:08.528Z,12.23
2023-04-27T19:15:35.663Z,10.07
2023-04-27T19:18:10.571Z,15.65
2023-04-27T19:20:39.554Z,12.25
2023-04-27T19:23:08.167Z,13.57
2023-04-27T19:25:35.565Z,12.25
2023-04-27T19:28:02.699Z,11.98
2023-04-27T19:30:29.938Z,9.88
2023-04-27T19:32:58.409Z,10.35
2023-04-27T19:35:26.741Z,10.65
2023-04-27T19:37:53.785Z,12.43
2023-04-27T19:40:21.677Z,12.30
2023-04-27T19:42:48.886Z,12.00
2023-04-27T19:45:18.558Z,15.32
2023-04-27T19:47:46.537Z,12.55
2023-04-27T19:50:13.813Z,14.68
2023-04-27T19:52:41.317Z,10.65
2023-04-27T19:55:09.946Z,15.48
2023-04-27T19:57:37.997Z,13.05
2023-04-27T20:00:10.973Z,15.38
2023-04-27T20:02:42.729Z,12.27
2023-04-27T20:05:11.090Z,14.98
2023-04-27T20:07:39.807Z,10.57
2023-04-27T20:10:07.891Z,12.60
2023-04-27T20:15:08.781Z,9.13
2023-04-27T20:17:39.498Z,6.70
2023-04-27T20:20:11.863Z,10.95
2023-04-27T20:22:40.087Z,11.77
2023-04-27T20:25:08.353Z,11.05
2023-04-27T20:27:36.107Z,11.00
2023-04-27T20:30:03.928Z,9.57
2023-04-27T20:32:31.027Z,9.18
2023-04-27T20:34:59.287Z,8.30
2023-04-27T20:37:28.375Z,12.68
2023-04-27T20:39:56.151Z,11.02
2023-04-27T20:42:24.780Z,14.45
2023-04-27T20:44:55.013Z,6.45
2023-04-27T20:47:22.657Z,13.35
2023-04-27T20:49:49.719Z,15.00
2023-04-27T20:52:17.079Z,9.43
2023-04-27T20:54:44.092Z,9.27
2023-04-27T20:57:14.401Z,11.05
2023-04-27T20:59:41.852Z,8.50
2023-04-27T21:02:09.135Z,7.13
2023-04-27T21:04:36.425Z,8.80
2023-04-27T21:07:03.791Z,10.35
2023-04-27T21:09:31.587Z,11.52
2023-04-27T21:11:58.682Z,14.63
2023-04-27T21:14:25.920Z,8.40
2023-04-27T21:16:53.018Z,10.60
2023-04-27T21:19:20.821Z,8.90
2023-04-27T21:21:47.890Z,7.50
2023-04-27T21:24:15.060Z,6.63
2023-04-27T21:26:42.527Z,10.60
2023-04-27T21:29:09.732Z,8.45
2023-04-27T21:31:37.116Z,7.75
2023-04-27T21:34:04.381Z,9.77
2023-04-27T21:36:33.161Z,5.20
2023-04-27T21:39:00.223Z,12.32
2023-04-27T21:41:27.573Z,7.88
2023-04-27T21:43:54.729Z,7.55
2023-04-27T21:46:23.814Z,11.15
2023-04-27T21:48:51.107Z,12.10
2023-04-27T21:51:19.205Z,9.98
2023-04-27T21:53:46.382Z,8.85
2023-04-27T21:56:13.632Z,11.38
2023-04-27T21:58:40.948Z,8.52
2023-04-27T22:01:08.006Z,10.27
2023-04-27T22:03:35.302Z,10.02
2023-04-27T22:06:02.639Z,14.32
2023-04-27T22:08:29.712Z,9.70
2023-04-27T22:10:56.779Z,9.32
2023-04-27T22:13:23.834Z,11.38
2023-04-27T22:15:51.413Z,6.55
2023-04-27T22:18:18.881Z,9.10
2023-04-27T22:20:46.331Z,9.25
2023-04-27T22:23:13.396Z,7.55
2023-04-27T22:25:42.956Z,7.10
2023-04-27T22:28:11.047Z,11.75
2023-04-27T22:30:38.554Z,6.82
2023-04-27T22:33:06.543Z,6.53
2023-04-27T22:35:33.923Z,4.72
2023-04-27T22:38:01.241Z,8.15
2023-04-27T22:40:28.533Z,5.88
2023-04-27T22:42:55.923Z,4.88
2023-04-27T22:45:23.610Z,10.20
2023-04-27T22:47:51.083Z,7.60
2023-04-27T22:50:18.548Z,7.30
2023-04-27T22:52:45.890Z,6.85
2023-04-27T22:55:13.312Z,6.32
2023-04-27T22:57:41.877Z,8.13
2023-04-27T23:00:11.799Z,11.38
2023-04-27T23:02:40.493Z,8.60
2023-04-27T23:05:08.418Z,7.43
2023-04-27T23:07:36.347Z,7.53
2023-04-27T23:10:03.738Z,5.53
2023-04-27T23:12:31.511Z,4.97
2023-04-27T23:14:59.182Z,5.05
2023-04-27T23:17:30.833Z,6.78
2023-04-27T23:20:02.241Z,4.03
2023-04-27T23:22:29.390Z,5.28
2023-04-27T23:24:56.497Z,4.75
2023-04-27T23:27:25.163Z,6.30
2023-04-27T23:29:52.961Z,6.28
2023-04-27T23:32:20.716Z,8.45
2023-04-27T23:34:47.896Z,3.20
2023-04-27T23:37:15.003Z,9.18
2023-04-27T23:39:42.040Z,4.40
2023-04-27T23:42:09.118Z,6.50
2023-04-27T23:44:36.209Z,7.28
2023-04-27T23:47:03.350Z,6.30
2023-04-27T23:49:30.376Z,6.20
2023-04-27T23:51:57.472Z,6.38
2023-04-27T23:54:24.520Z,3.83
2023-04-27T23:56:51.977Z,4.45
2023-04-27T23:59:19.108Z,5.85
